<?xml version="1.0" encoding="UTF-8" standalone="no" ?>
<gpx xmlns="http://www.topografix.com/GPX/1/1" xmlns:xsi="http://www.w3.org/2001/XMLSchema-instance" xsi:schemaLocation="http://www.topografix.com/GPX/1/1 http://www.topografix.com/GPX/1/1/gpx.xsd" version="1.1" creator="VisuGPX - https://www.visugpx.com">
  <metadata>
    <name>sejour gov alsace</name>
  </metadata>
  <wpt lat="48.06424" lon="7.02221">
    <ele>1132</ele>
    <name><![CDATA[Col de la Schlucht]]></name>
    <desc><![CDATA[Parking]]></desc>
    <cmt><![CDATA[Parking]]></cmt>
  </wpt>
  <wpt lat="48.04158" lon="7.29947">
    <ele>223</ele>
    <name><![CDATA[Eguisheim]]></name>
  </wpt>
  <wpt lat="48.1793" lon="7.31018">
    <ele>275</ele>
    <name><![CDATA[Hunawihr]]></name>
  </wpt>
  <wpt lat="48.13923" lon="7.25933">
    <ele>251</ele>
    <name><![CDATA[Kaysersberg]]></name>
  </wpt>
  <wpt lat="48.14587" lon="7.25086">
    <ele>290</ele>
    <name><![CDATA[Kaysersberg-CCAS]]></name>
    <desc><![CDATA[3 Rue Rene le Guen]]></desc>
    <cmt><![CDATA[3 Rue Rene le Guen]]></cmt>
  </wpt>
  <wpt lat="48.14668" lon="7.25549">
    <ele>261</ele>
    <name><![CDATA[Kaysersberg-Salle de Sport]]></name>
  </wpt>
  <wpt lat="48.11261" lon="7.10019">
    <ele>958</ele>
    <name><![CDATA[Lac Noir]]></name>
  </wpt>
  <wpt lat="48.17" lon="7.12576">
    <ele>667</ele>
    <name><![CDATA[Le Bonhomme]]></name>
  </wpt>
  <wpt lat="48.05292" lon="6.9482">
    <ele>918</ele>
    <name><![CDATA[Lispach]]></name>
  </wpt>
  <wpt lat="48.16758" lon="7.29424">
    <ele>321</ele>
    <name><![CDATA[Riquewihr]]></name>
  </wpt>
  <wpt lat="48.23274" lon="7.36606">
    <ele>254</ele>
    <name><![CDATA[St-Hippolyte]]></name>
  </wpt>
  <wpt lat="48.22694" lon="7.30439">
    <ele>466</ele>
    <name><![CDATA[Thannenkirch]]></name>
  </wpt>
  <trk>
    <name><![CDATA[Lac de Lispach-Tete de Grouvelin (18,4 km & 660 m)]]></name>
    <trkseg>
      <trkpt lat="48.05283" lon="6.94835">
        <ele>924.93</ele>
        <time>2015-09-24T07:22:24Z</time>
      </trkpt>
      <trkpt lat="48.05284" lon="6.94806">
        <ele>910.51</ele>
        <time>2015-09-24T07:27:40Z</time>
      </trkpt>
      <trkpt lat="48.05307" lon="6.94802">
        <ele>912.91</ele>
        <time>2015-09-24T07:35:40Z</time>
      </trkpt>
      <trkpt lat="48.05325" lon="6.94789">
        <ele>913.39</ele>
        <time>2015-09-24T07:36:51Z</time>
      </trkpt>
      <trkpt lat="48.05356" lon="6.94762">
        <ele>911.95</ele>
        <time>2015-09-24T07:37:25Z</time>
      </trkpt>
      <trkpt lat="48.05372" lon="6.94746">
        <ele>911.47</ele>
        <time>2015-09-24T07:37:43Z</time>
      </trkpt>
      <trkpt lat="48.05415" lon="6.94725">
        <ele>910.51</ele>
        <time>2015-09-24T07:38:25Z</time>
      </trkpt>
      <trkpt lat="48.05443" lon="6.94688">
        <ele>910.99</ele>
        <time>2015-09-24T07:39:00Z</time>
      </trkpt>
      <trkpt lat="48.05437" lon="6.94661">
        <ele>909.54</ele>
        <time>2015-09-24T07:39:20Z</time>
      </trkpt>
      <trkpt lat="48.05469" lon="6.94637">
        <ele>911.95</ele>
        <time>2015-09-24T07:42:24Z</time>
      </trkpt>
      <trkpt lat="48.0551" lon="6.94611">
        <ele>910.99</ele>
        <time>2015-09-24T07:44:21Z</time>
      </trkpt>
      <trkpt lat="48.05529" lon="6.94605">
        <ele>911.95</ele>
        <time>2015-09-24T07:44:53Z</time>
      </trkpt>
      <trkpt lat="48.05562" lon="6.94584">
        <ele>913.39</ele>
        <time>2015-09-24T07:45:27Z</time>
      </trkpt>
      <trkpt lat="48.05594" lon="6.94554">
        <ele>918.68</ele>
        <time>2015-09-24T07:45:58Z</time>
      </trkpt>
      <trkpt lat="48.0561" lon="6.94537">
        <ele>918.2</ele>
        <time>2015-09-24T07:46:13Z</time>
      </trkpt>
      <trkpt lat="48.05641" lon="6.945">
        <ele>919.16</ele>
        <time>2015-09-24T07:46:43Z</time>
      </trkpt>
      <trkpt lat="48.05654" lon="6.94467">
        <ele>920.12</ele>
        <time>2015-09-24T07:46:59Z</time>
      </trkpt>
      <trkpt lat="48.05655" lon="6.94428">
        <ele>921.08</ele>
        <time>2015-09-24T07:47:18Z</time>
      </trkpt>
      <trkpt lat="48.05655" lon="6.94397">
        <ele>919.64</ele>
        <time>2015-09-24T07:47:35Z</time>
      </trkpt>
      <trkpt lat="48.05656" lon="6.94366">
        <ele>918.2</ele>
        <time>2015-09-24T07:47:53Z</time>
      </trkpt>
      <trkpt lat="48.05659" lon="6.94338">
        <ele>917.72</ele>
        <time>2015-09-24T07:48:09Z</time>
      </trkpt>
      <trkpt lat="48.05624" lon="6.94304">
        <ele>913.87</ele>
        <time>2015-09-24T07:49:00Z</time>
      </trkpt>
      <trkpt lat="48.05594" lon="6.94303">
        <ele>910.99</ele>
        <time>2015-09-24T07:51:00Z</time>
      </trkpt>
      <trkpt lat="48.05558" lon="6.94265">
        <ele>915.31</ele>
        <time>2015-09-24T07:52:13Z</time>
      </trkpt>
      <trkpt lat="48.05535" lon="6.94248">
        <ele>917.72</ele>
        <time>2015-09-24T07:52:43Z</time>
      </trkpt>
      <trkpt lat="48.05481" lon="6.9425">
        <ele>922.52</ele>
        <time>2015-09-24T07:53:31Z</time>
      </trkpt>
      <trkpt lat="48.05434" lon="6.94253">
        <ele>918.68</ele>
        <time>2015-09-24T07:54:21Z</time>
      </trkpt>
      <trkpt lat="48.054" lon="6.94243">
        <ele>913.87</ele>
        <time>2015-09-24T07:54:54Z</time>
      </trkpt>
      <trkpt lat="48.0538" lon="6.94232">
        <ele>913.39</ele>
        <time>2015-09-24T07:55:14Z</time>
      </trkpt>
      <trkpt lat="48.05364" lon="6.9421">
        <ele>913.39</ele>
        <time>2015-09-24T07:55:33Z</time>
      </trkpt>
      <trkpt lat="48.05345" lon="6.94198">
        <ele>913.39</ele>
        <time>2015-09-24T07:55:55Z</time>
      </trkpt>
      <trkpt lat="48.05304" lon="6.942">
        <ele>911.95</ele>
        <time>2015-09-24T07:56:29Z</time>
      </trkpt>
      <trkpt lat="48.05287" lon="6.94179">
        <ele>911.95</ele>
        <time>2015-09-24T07:59:02Z</time>
      </trkpt>
      <trkpt lat="48.05255" lon="6.94152">
        <ele>912.43</ele>
        <time>2015-09-24T07:59:37Z</time>
      </trkpt>
      <trkpt lat="48.05239" lon="6.94136">
        <ele>912.43</ele>
        <time>2015-09-24T07:59:53Z</time>
      </trkpt>
      <trkpt lat="48.05213" lon="6.9411">
        <ele>913.39</ele>
        <time>2015-09-24T08:00:25Z</time>
      </trkpt>
      <trkpt lat="48.05183" lon="6.94122">
        <ele>912.91</ele>
        <time>2015-09-24T08:00:58Z</time>
      </trkpt>
      <trkpt lat="48.05159" lon="6.94166">
        <ele>911.95</ele>
        <time>2015-09-24T08:05:03Z</time>
      </trkpt>
      <trkpt lat="48.0512" lon="6.94168">
        <ele>911.47</ele>
        <time>2015-09-24T08:05:41Z</time>
      </trkpt>
      <trkpt lat="48.0509" lon="6.9416">
        <ele>912.91</ele>
        <time>2015-09-24T08:06:27Z</time>
      </trkpt>
      <trkpt lat="48.05083" lon="6.94189">
        <ele>914.35</ele>
        <time>2015-09-24T08:07:33Z</time>
      </trkpt>
      <trkpt lat="48.0506" lon="6.94237">
        <ele>926.85</ele>
        <time>2015-09-24T08:10:48Z</time>
      </trkpt>
      <trkpt lat="48.05043" lon="6.94271">
        <ele>939.35</ele>
        <time>2015-09-24T08:11:36Z</time>
      </trkpt>
      <trkpt lat="48.05047" lon="6.94333">
        <ele>943.19</ele>
        <time>2015-09-24T08:12:13Z</time>
      </trkpt>
      <trkpt lat="48.05045" lon="6.94386">
        <ele>947.04</ele>
        <time>2015-09-24T08:12:44Z</time>
      </trkpt>
      <trkpt lat="48.05044" lon="6.9445">
        <ele>951.84</ele>
        <time>2015-09-24T08:13:26Z</time>
      </trkpt>
      <trkpt lat="48.05037" lon="6.94494">
        <ele>955.21</ele>
        <time>2015-09-24T08:13:53Z</time>
      </trkpt>
      <trkpt lat="48.05015" lon="6.94558">
        <ele>961.46</ele>
        <time>2015-09-24T08:14:38Z</time>
      </trkpt>
      <trkpt lat="48.05016" lon="6.94595">
        <ele>964.82</ele>
        <time>2015-09-24T08:15:08Z</time>
      </trkpt>
      <trkpt lat="48.04994" lon="6.94625">
        <ele>968.18</ele>
        <time>2015-09-24T08:16:01Z</time>
      </trkpt>
      <trkpt lat="48.04975" lon="6.9464">
        <ele>971.07</ele>
        <time>2015-09-24T08:16:19Z</time>
      </trkpt>
      <trkpt lat="48.04948" lon="6.9465">
        <ele>972.99</ele>
        <time>2015-09-24T08:18:04Z</time>
      </trkpt>
      <trkpt lat="48.04925" lon="6.94663">
        <ele>976.84</ele>
        <time>2015-09-24T08:18:29Z</time>
      </trkpt>
      <trkpt lat="48.04904" lon="6.9468">
        <ele>979.72</ele>
        <time>2015-09-24T08:19:00Z</time>
      </trkpt>
      <trkpt lat="48.04881" lon="6.94694">
        <ele>983.57</ele>
        <time>2015-09-24T08:19:29Z</time>
      </trkpt>
      <trkpt lat="48.04861" lon="6.94717">
        <ele>985.97</ele>
        <time>2015-09-24T08:20:00Z</time>
      </trkpt>
      <trkpt lat="48.0483" lon="6.94736">
        <ele>992.7</ele>
        <time>2015-09-24T08:21:04Z</time>
      </trkpt>
      <trkpt lat="48.048" lon="6.94755">
        <ele>995.58</ele>
        <time>2015-09-24T08:21:41Z</time>
      </trkpt>
      <trkpt lat="48.04772" lon="6.94766">
        <ele>1002.31</ele>
        <time>2015-09-24T08:22:26Z</time>
      </trkpt>
      <trkpt lat="48.0475" lon="6.94784">
        <ele>1005.2</ele>
        <time>2015-09-24T08:23:07Z</time>
      </trkpt>
      <trkpt lat="48.04725" lon="6.94798">
        <ele>1009.52</ele>
        <time>2015-09-24T08:23:44Z</time>
      </trkpt>
      <trkpt lat="48.04696" lon="6.9482">
        <ele>1014.81</ele>
        <time>2015-09-24T08:24:44Z</time>
      </trkpt>
      <trkpt lat="48.04676" lon="6.94839">
        <ele>1017.69</ele>
        <time>2015-09-24T08:25:20Z</time>
      </trkpt>
      <trkpt lat="48.04661" lon="6.94814">
        <ele>1018.17</ele>
        <time>2015-09-24T08:26:20Z</time>
      </trkpt>
      <trkpt lat="48.04642" lon="6.94815">
        <ele>1031.63</ele>
        <time>2015-09-24T08:26:59Z</time>
      </trkpt>
      <trkpt lat="48.0463" lon="6.9484">
        <ele>1035.96</ele>
        <time>2015-09-24T08:27:33Z</time>
      </trkpt>
      <trkpt lat="48.04618" lon="6.94869">
        <ele>1037.88</ele>
        <time>2015-09-24T08:28:06Z</time>
      </trkpt>
      <trkpt lat="48.04607" lon="6.94903">
        <ele>1031.15</ele>
        <time>2015-09-24T08:29:14Z</time>
      </trkpt>
      <trkpt lat="48.04596" lon="6.94925">
        <ele>1020.1</ele>
        <time>2015-09-24T08:30:51Z</time>
      </trkpt>
      <trkpt lat="48.04597" lon="6.94956">
        <ele>1014.81</ele>
        <time>2015-09-24T08:31:43Z</time>
      </trkpt>
      <trkpt lat="48.04592" lon="6.95001">
        <ele>1005.68</ele>
        <time>2015-09-24T08:33:24Z</time>
      </trkpt>
      <trkpt lat="48.04585" lon="6.95036">
        <ele>1002.31</ele>
        <time>2015-09-24T08:33:54Z</time>
      </trkpt>
      <trkpt lat="48.04581" lon="6.95066">
        <ele>998.47</ele>
        <time>2015-09-24T08:34:27Z</time>
      </trkpt>
      <trkpt lat="48.04571" lon="6.95104">
        <ele>995.1</ele>
        <time>2015-09-24T08:35:28Z</time>
      </trkpt>
      <trkpt lat="48.04569" lon="6.95136">
        <ele>991.74</ele>
        <time>2015-09-24T08:36:57Z</time>
      </trkpt>
      <trkpt lat="48.04581" lon="6.95166">
        <ele>989.81</ele>
        <time>2015-09-24T08:37:31Z</time>
      </trkpt>
      <trkpt lat="48.04566" lon="6.95207">
        <ele>990.3</ele>
        <time>2015-09-24T08:38:05Z</time>
      </trkpt>
      <trkpt lat="48.04554" lon="6.95257">
        <ele>989.33</ele>
        <time>2015-09-24T08:38:52Z</time>
      </trkpt>
      <trkpt lat="48.04544" lon="6.95287">
        <ele>993.18</ele>
        <time>2015-09-24T08:39:25Z</time>
      </trkpt>
      <trkpt lat="48.04531" lon="6.95318">
        <ele>997.02</ele>
        <time>2015-09-24T08:40:01Z</time>
      </trkpt>
      <trkpt lat="48.04522" lon="6.95345">
        <ele>998.95</ele>
        <time>2015-09-24T08:40:35Z</time>
      </trkpt>
      <trkpt lat="48.04501" lon="6.95365">
        <ele>1000.39</ele>
        <time>2015-09-24T08:41:09Z</time>
      </trkpt>
      <trkpt lat="48.04501" lon="6.95396">
        <ele>1003.27</ele>
        <time>2015-09-24T08:41:59Z</time>
      </trkpt>
      <trkpt lat="48.04503" lon="6.95435">
        <ele>1006.64</ele>
        <time>2015-09-24T08:42:32Z</time>
      </trkpt>
      <trkpt lat="48.045" lon="6.95472">
        <ele>1006.64</ele>
        <time>2015-09-24T08:43:01Z</time>
      </trkpt>
      <trkpt lat="48.04505" lon="6.95518">
        <ele>1010.48</ele>
        <time>2015-09-24T08:44:22Z</time>
      </trkpt>
      <trkpt lat="48.04488" lon="6.9555">
        <ele>1022.98</ele>
        <time>2015-09-24T08:45:58Z</time>
      </trkpt>
      <trkpt lat="48.04456" lon="6.95563">
        <ele>1023.94</ele>
        <time>2015-09-24T08:51:35Z</time>
      </trkpt>
      <trkpt lat="48.04403" lon="6.95571">
        <ele>1025.38</ele>
        <time>2015-09-24T08:52:49Z</time>
      </trkpt>
      <trkpt lat="48.04369" lon="6.9557">
        <ele>1027.79</ele>
        <time>2015-09-24T08:53:36Z</time>
      </trkpt>
      <trkpt lat="48.04349" lon="6.95577">
        <ele>1028.27</ele>
        <time>2015-09-24T08:54:09Z</time>
      </trkpt>
      <trkpt lat="48.04309" lon="6.95579">
        <ele>1029.71</ele>
        <time>2015-09-24T08:56:48Z</time>
      </trkpt>
      <trkpt lat="48.04284" lon="6.95566">
        <ele>1030.19</ele>
        <time>2015-09-24T08:57:18Z</time>
      </trkpt>
      <trkpt lat="48.04249" lon="6.9558">
        <ele>1040.28</ele>
        <time>2015-09-24T08:58:19Z</time>
      </trkpt>
      <trkpt lat="48.04229" lon="6.95596">
        <ele>1040.76</ele>
        <time>2015-09-24T09:00:09Z</time>
      </trkpt>
      <trkpt lat="48.04209" lon="6.95611">
        <ele>1046.05</ele>
        <time>2015-09-24T09:02:53Z</time>
      </trkpt>
      <trkpt lat="48.04192" lon="6.95649">
        <ele>1042.21</ele>
        <time>2015-09-24T09:03:39Z</time>
      </trkpt>
      <trkpt lat="48.04168" lon="6.95689">
        <ele>1037.88</ele>
        <time>2015-09-24T09:07:02Z</time>
      </trkpt>
      <trkpt lat="48.04193" lon="6.95712">
        <ele>1032.11</ele>
        <time>2015-09-24T09:10:46Z</time>
      </trkpt>
      <trkpt lat="48.04208" lon="6.95761">
        <ele>1026.34</ele>
        <time>2015-09-24T09:11:35Z</time>
      </trkpt>
      <trkpt lat="48.04227" lon="6.95803">
        <ele>1026.83</ele>
        <time>2015-09-24T09:12:08Z</time>
      </trkpt>
      <trkpt lat="48.04251" lon="6.95836">
        <ele>1025.38</ele>
        <time>2015-09-24T09:13:22Z</time>
      </trkpt>
      <trkpt lat="48.04278" lon="6.9587">
        <ele>1022.98</ele>
        <time>2015-09-24T09:14:09Z</time>
      </trkpt>
      <trkpt lat="48.04301" lon="6.95872">
        <ele>1022.5</ele>
        <time>2015-09-24T09:14:45Z</time>
      </trkpt>
      <trkpt lat="48.04324" lon="6.95899">
        <ele>1022.02</ele>
        <time>2015-09-24T09:15:17Z</time>
      </trkpt>
      <trkpt lat="48.0436" lon="6.95932">
        <ele>1016.73</ele>
        <time>2015-09-24T09:16:06Z</time>
      </trkpt>
      <trkpt lat="48.04393" lon="6.95949">
        <ele>1002.31</ele>
        <time>2015-09-24T09:18:09Z</time>
      </trkpt>
      <trkpt lat="48.0441" lon="6.95976">
        <ele>999.91</ele>
        <time>2015-09-24T09:18:39Z</time>
      </trkpt>
      <trkpt lat="48.0445" lon="6.96022">
        <ele>994.14</ele>
        <time>2015-09-24T09:19:28Z</time>
      </trkpt>
      <trkpt lat="48.04466" lon="6.96046">
        <ele>990.78</ele>
        <time>2015-09-24T09:20:01Z</time>
      </trkpt>
      <trkpt lat="48.04481" lon="6.96066">
        <ele>988.37</ele>
        <time>2015-09-24T09:20:28Z</time>
      </trkpt>
      <trkpt lat="48.04493" lon="6.96089">
        <ele>987.89</ele>
        <time>2015-09-24T09:21:00Z</time>
      </trkpt>
      <trkpt lat="48.04513" lon="6.96135">
        <ele>992.22</ele>
        <time>2015-09-24T09:22:27Z</time>
      </trkpt>
      <trkpt lat="48.04535" lon="6.96206">
        <ele>1000.39</ele>
        <time>2015-09-24T09:24:21Z</time>
      </trkpt>
      <trkpt lat="48.04553" lon="6.96237">
        <ele>1001.83</ele>
        <time>2015-09-24T09:24:52Z</time>
      </trkpt>
      <trkpt lat="48.04568" lon="6.96263">
        <ele>1005.68</ele>
        <time>2015-09-24T09:25:23Z</time>
      </trkpt>
      <trkpt lat="48.0458" lon="6.96295">
        <ele>1009.52</ele>
        <time>2015-09-24T09:26:28Z</time>
      </trkpt>
      <trkpt lat="48.04584" lon="6.96338">
        <ele>1015.77</ele>
        <time>2015-09-24T09:26:56Z</time>
      </trkpt>
      <trkpt lat="48.04589" lon="6.96397">
        <ele>1023.46</ele>
        <time>2015-09-24T09:27:43Z</time>
      </trkpt>
      <trkpt lat="48.04587" lon="6.96426">
        <ele>1025.38</ele>
        <time>2015-09-24T09:28:02Z</time>
      </trkpt>
      <trkpt lat="48.04588" lon="6.96472">
        <ele>1028.27</ele>
        <time>2015-09-24T09:28:40Z</time>
      </trkpt>
      <trkpt lat="48.04588" lon="6.96521">
        <ele>1035.96</ele>
        <time>2015-09-24T09:37:18Z</time>
      </trkpt>
      <trkpt lat="48.04558" lon="6.96497">
        <ele>1043.17</ele>
        <time>2015-09-24T09:38:34Z</time>
      </trkpt>
      <trkpt lat="48.04543" lon="6.96472">
        <ele>1051.34</ele>
        <time>2015-09-24T09:39:41Z</time>
      </trkpt>
      <trkpt lat="48.04528" lon="6.96453">
        <ele>1052.3</ele>
        <time>2015-09-24T09:39:58Z</time>
      </trkpt>
      <trkpt lat="48.0451" lon="6.96438">
        <ele>1054.7</ele>
        <time>2015-09-24T09:40:16Z</time>
      </trkpt>
      <trkpt lat="48.04516" lon="6.96473">
        <ele>1059.99</ele>
        <time>2015-09-24T09:40:54Z</time>
      </trkpt>
      <trkpt lat="48.04509" lon="6.96538">
        <ele>1062.39</ele>
        <time>2015-09-24T09:41:44Z</time>
      </trkpt>
      <trkpt lat="48.04509" lon="6.96579">
        <ele>1063.84</ele>
        <time>2015-09-24T09:42:17Z</time>
      </trkpt>
      <trkpt lat="48.04503" lon="6.96619">
        <ele>1067.68</ele>
        <time>2015-09-24T09:44:06Z</time>
      </trkpt>
      <trkpt lat="48.045" lon="6.96571">
        <ele>1072.97</ele>
        <time>2015-09-24T09:44:53Z</time>
      </trkpt>
      <trkpt lat="48.04482" lon="6.96601">
        <ele>1076.81</ele>
        <time>2015-09-24T09:45:28Z</time>
      </trkpt>
      <trkpt lat="48.04473" lon="6.96647">
        <ele>1079.22</ele>
        <time>2015-09-24T09:46:02Z</time>
      </trkpt>
      <trkpt lat="48.04472" lon="6.96701">
        <ele>1082.58</ele>
        <time>2015-09-24T09:46:53Z</time>
      </trkpt>
      <trkpt lat="48.04448" lon="6.96704">
        <ele>1088.83</ele>
        <time>2015-09-24T09:47:30Z</time>
      </trkpt>
      <trkpt lat="48.04428" lon="6.96659">
        <ele>1103.25</ele>
        <time>2015-09-24T09:49:04Z</time>
      </trkpt>
      <trkpt lat="48.0443" lon="6.96597">
        <ele>1105.17</ele>
        <time>2015-09-24T09:49:44Z</time>
      </trkpt>
      <trkpt lat="48.04415" lon="6.96574">
        <ele>1115.27</ele>
        <time>2015-09-24T09:51:06Z</time>
      </trkpt>
      <trkpt lat="48.04374" lon="6.96571">
        <ele>1126.32</ele>
        <time>2015-09-24T09:52:23Z</time>
      </trkpt>
      <trkpt lat="48.04369" lon="6.9654">
        <ele>1130.65</ele>
        <time>2015-09-24T09:52:56Z</time>
      </trkpt>
      <trkpt lat="48.04341" lon="6.96513">
        <ele>1133.53</ele>
        <time>2015-09-24T09:53:24Z</time>
      </trkpt>
      <trkpt lat="48.04323" lon="6.96482">
        <ele>1130.17</ele>
        <time>2015-09-24T09:53:57Z</time>
      </trkpt>
      <trkpt lat="48.0431" lon="6.96425">
        <ele>1129.69</ele>
        <time>2015-09-24T09:54:48Z</time>
      </trkpt>
      <trkpt lat="48.04299" lon="6.96388">
        <ele>1130.17</ele>
        <time>2015-09-24T09:55:19Z</time>
      </trkpt>
      <trkpt lat="48.04284" lon="6.96324">
        <ele>1129.21</ele>
        <time>2015-09-24T09:56:10Z</time>
      </trkpt>
      <trkpt lat="48.04271" lon="6.96268">
        <ele>1127.76</ele>
        <time>2015-09-24T09:56:45Z</time>
      </trkpt>
      <trkpt lat="48.04257" lon="6.96226">
        <ele>1131.13</ele>
        <time>2015-09-24T09:57:13Z</time>
      </trkpt>
      <trkpt lat="48.04234" lon="6.96192">
        <ele>1134.97</ele>
        <time>2015-09-24T09:57:49Z</time>
      </trkpt>
      <trkpt lat="48.042" lon="6.96154">
        <ele>1135.45</ele>
        <time>2015-09-24T09:58:22Z</time>
      </trkpt>
      <trkpt lat="48.04169" lon="6.96117">
        <ele>1136.42</ele>
        <time>2015-09-24T09:58:55Z</time>
      </trkpt>
      <trkpt lat="48.04142" lon="6.96083">
        <ele>1137.38</ele>
        <time>2015-09-24T09:59:27Z</time>
      </trkpt>
      <trkpt lat="48.04125" lon="6.96065">
        <ele>1137.86</ele>
        <time>2015-09-24T09:59:45Z</time>
      </trkpt>
      <trkpt lat="48.04088" lon="6.96022">
        <ele>1141.7</ele>
        <time>2015-09-24T10:00:29Z</time>
      </trkpt>
      <trkpt lat="48.04072" lon="6.96003">
        <ele>1143.63</ele>
        <time>2015-09-24T10:00:46Z</time>
      </trkpt>
      <trkpt lat="48.04053" lon="6.9598">
        <ele>1146.99</ele>
        <time>2015-09-24T10:01:20Z</time>
      </trkpt>
      <trkpt lat="48.0402" lon="6.95945">
        <ele>1151.32</ele>
        <time>2015-09-24T10:01:53Z</time>
      </trkpt>
      <trkpt lat="48.03985" lon="6.95891">
        <ele>1156.12</ele>
        <time>2015-09-24T10:02:37Z</time>
      </trkpt>
      <trkpt lat="48.03969" lon="6.95846">
        <ele>1159.97</ele>
        <time>2015-09-24T10:03:12Z</time>
      </trkpt>
      <trkpt lat="48.03956" lon="6.9581">
        <ele>1159.01</ele>
        <time>2015-09-24T10:03:36Z</time>
      </trkpt>
      <trkpt lat="48.03937" lon="6.95756">
        <ele>1159.49</ele>
        <time>2015-09-24T10:04:10Z</time>
      </trkpt>
      <trkpt lat="48.03925" lon="6.95733">
        <ele>1158.53</ele>
        <time>2015-09-24T10:04:27Z</time>
      </trkpt>
      <trkpt lat="48.0391" lon="6.95688">
        <ele>1157.08</ele>
        <time>2015-09-24T10:04:58Z</time>
      </trkpt>
      <trkpt lat="48.03886" lon="6.95615">
        <ele>1153.72</ele>
        <time>2015-09-24T10:05:47Z</time>
      </trkpt>
      <trkpt lat="48.03866" lon="6.95562">
        <ele>1153.72</ele>
        <time>2015-09-24T10:06:19Z</time>
      </trkpt>
      <trkpt lat="48.03857" lon="6.95531">
        <ele>1149.87</ele>
        <time>2015-09-24T10:07:15Z</time>
      </trkpt>
      <trkpt lat="48.0384" lon="6.95491">
        <ele>1149.87</ele>
        <time>2015-09-24T10:07:46Z</time>
      </trkpt>
      <trkpt lat="48.03832" lon="6.95464">
        <ele>1148.91</ele>
        <time>2015-09-24T10:08:19Z</time>
      </trkpt>
      <trkpt lat="48.03807" lon="6.954">
        <ele>1147.47</ele>
        <time>2015-09-24T10:09:47Z</time>
      </trkpt>
      <trkpt lat="48.03784" lon="6.95357">
        <ele>1144.59</ele>
        <time>2015-09-24T10:11:12Z</time>
      </trkpt>
      <trkpt lat="48.03768" lon="6.95293">
        <ele>1146.03</ele>
        <time>2015-09-24T10:12:41Z</time>
      </trkpt>
      <trkpt lat="48.03761" lon="6.95243">
        <ele>1150.35</ele>
        <time>2015-09-24T10:13:36Z</time>
      </trkpt>
      <trkpt lat="48.03734" lon="6.9521">
        <ele>1156.12</ele>
        <time>2015-09-24T10:14:16Z</time>
      </trkpt>
      <trkpt lat="48.03722" lon="6.95171">
        <ele>1169.58</ele>
        <time>2015-09-24T10:16:20Z</time>
      </trkpt>
      <trkpt lat="48.03736" lon="6.95113">
        <ele>1176.79</ele>
        <time>2015-09-24T10:17:34Z</time>
      </trkpt>
      <trkpt lat="48.0376" lon="6.95075">
        <ele>1177.27</ele>
        <time>2015-09-24T10:18:08Z</time>
      </trkpt>
      <trkpt lat="48.03768" lon="6.95042">
        <ele>1178.23</ele>
        <time>2015-09-24T10:18:30Z</time>
      </trkpt>
      <trkpt lat="48.03771" lon="6.94995">
        <ele>1179.19</ele>
        <time>2015-09-24T10:19:03Z</time>
      </trkpt>
      <trkpt lat="48.03766" lon="6.94934">
        <ele>1182.56</ele>
        <time>2015-09-24T10:19:48Z</time>
      </trkpt>
      <trkpt lat="48.03767" lon="6.94903">
        <ele>1182.56</ele>
        <time>2015-09-24T10:20:03Z</time>
      </trkpt>
      <trkpt lat="48.03745" lon="6.94841">
        <ele>1187.85</ele>
        <time>2015-09-24T10:20:54Z</time>
      </trkpt>
      <trkpt lat="48.0373" lon="6.94816">
        <ele>1188.81</ele>
        <time>2015-09-24T10:21:15Z</time>
      </trkpt>
      <trkpt lat="48.03716" lon="6.94796">
        <ele>1188.81</ele>
        <time>2015-09-24T10:21:31Z</time>
      </trkpt>
      <trkpt lat="48.03684" lon="6.94764">
        <ele>1188.33</ele>
        <time>2015-09-24T10:22:03Z</time>
      </trkpt>
      <trkpt lat="48.03666" lon="6.94752">
        <ele>1188.33</ele>
        <time>2015-09-24T10:22:19Z</time>
      </trkpt>
      <trkpt lat="48.03645" lon="6.94745">
        <ele>1188.81</ele>
        <time>2015-09-24T10:22:36Z</time>
      </trkpt>
      <trkpt lat="48.03623" lon="6.94746">
        <ele>1189.29</ele>
        <time>2015-09-24T10:22:54Z</time>
      </trkpt>
      <trkpt lat="48.0358" lon="6.94739">
        <ele>1189.29</ele>
        <time>2015-09-24T10:23:31Z</time>
      </trkpt>
      <trkpt lat="48.03554" lon="6.94732">
        <ele>1187.85</ele>
        <time>2015-09-24T10:23:55Z</time>
      </trkpt>
      <trkpt lat="48.03501" lon="6.94711">
        <ele>1185.44</ele>
        <time>2015-09-24T10:24:58Z</time>
      </trkpt>
      <trkpt lat="48.0348" lon="6.94694">
        <ele>1184</ele>
        <time>2015-09-24T10:25:17Z</time>
      </trkpt>
      <trkpt lat="48.03462" lon="6.94684">
        <ele>1183.04</ele>
        <time>2015-09-24T10:25:35Z</time>
      </trkpt>
      <trkpt lat="48.03442" lon="6.94669">
        <ele>1181.6</ele>
        <time>2015-09-24T10:25:54Z</time>
      </trkpt>
      <trkpt lat="48.03386" lon="6.94669">
        <ele>1183.52</ele>
        <time>2015-09-24T10:27:04Z</time>
      </trkpt>
      <trkpt lat="48.03365" lon="6.94668">
        <ele>1184</ele>
        <time>2015-09-24T10:27:21Z</time>
      </trkpt>
      <trkpt lat="48.03342" lon="6.94668">
        <ele>1183.52</ele>
        <time>2015-09-24T10:27:39Z</time>
      </trkpt>
      <trkpt lat="48.03315" lon="6.94664">
        <ele>1183.04</ele>
        <time>2015-09-24T10:28:08Z</time>
      </trkpt>
      <trkpt lat="48.03296" lon="6.94677">
        <ele>1184</ele>
        <time>2015-09-24T11:18:58Z</time>
      </trkpt>
      <trkpt lat="48.03123" lon="6.94352">
        <ele>1149.39</ele>
        <time>2015-09-24T11:42:35Z</time>
      </trkpt>
      <trkpt lat="48.03116" lon="6.94294">
        <ele>1162.37</ele>
        <time>2015-09-24T11:45:21Z</time>
      </trkpt>
      <trkpt lat="48.03104" lon="6.94221">
        <ele>1157.08</ele>
        <time>2015-09-24T11:46:12Z</time>
      </trkpt>
      <trkpt lat="48.03116" lon="6.94177">
        <ele>1153.72</ele>
        <time>2015-09-24T11:46:42Z</time>
      </trkpt>
      <trkpt lat="48.03125" lon="6.94146">
        <ele>1151.8</ele>
        <time>2015-09-24T11:46:59Z</time>
      </trkpt>
      <trkpt lat="48.03144" lon="6.94113">
        <ele>1148.91</ele>
        <time>2015-09-24T11:47:27Z</time>
      </trkpt>
      <trkpt lat="48.0316" lon="6.94095">
        <ele>1147.47</ele>
        <time>2015-09-24T11:47:43Z</time>
      </trkpt>
      <trkpt lat="48.03191" lon="6.94043">
        <ele>1139.78</ele>
        <time>2015-09-24T11:48:28Z</time>
      </trkpt>
      <trkpt lat="48.03191" lon="6.94006">
        <ele>1137.38</ele>
        <time>2015-09-24T11:49:12Z</time>
      </trkpt>
      <trkpt lat="48.03166" lon="6.93985">
        <ele>1134.97</ele>
        <time>2015-09-24T11:49:42Z</time>
      </trkpt>
      <trkpt lat="48.03148" lon="6.93972">
        <ele>1133.53</ele>
        <time>2015-09-24T11:49:59Z</time>
      </trkpt>
      <trkpt lat="48.03113" lon="6.9395">
        <ele>1131.13</ele>
        <time>2015-09-24T11:50:30Z</time>
      </trkpt>
      <trkpt lat="48.03082" lon="6.93947">
        <ele>1128.24</ele>
        <time>2015-09-24T11:51:01Z</time>
      </trkpt>
      <trkpt lat="48.03024" lon="6.93967">
        <ele>1122.96</ele>
        <time>2015-09-24T11:51:52Z</time>
      </trkpt>
      <trkpt lat="48.02994" lon="6.93977">
        <ele>1120.55</ele>
        <time>2015-09-24T11:52:16Z</time>
      </trkpt>
      <trkpt lat="48.02958" lon="6.93985">
        <ele>1117.19</ele>
        <time>2015-09-24T11:52:48Z</time>
      </trkpt>
      <trkpt lat="48.02938" lon="6.93996">
        <ele>1115.27</ele>
        <time>2015-09-24T11:53:06Z</time>
      </trkpt>
      <trkpt lat="48.02919" lon="6.93989">
        <ele>1111.9</ele>
        <time>2015-09-24T11:53:31Z</time>
      </trkpt>
      <trkpt lat="48.02942" lon="6.9394">
        <ele>1109.5</ele>
        <time>2015-09-24T11:56:10Z</time>
      </trkpt>
      <trkpt lat="48.02995" lon="6.93851">
        <ele>1099.89</ele>
        <time>2015-09-24T11:57:19Z</time>
      </trkpt>
      <trkpt lat="48.0301" lon="6.93828">
        <ele>1097</ele>
        <time>2015-09-24T11:57:36Z</time>
      </trkpt>
      <trkpt lat="48.03024" lon="6.93796">
        <ele>1094.12</ele>
        <time>2015-09-24T11:57:55Z</time>
      </trkpt>
      <trkpt lat="48.03036" lon="6.93766">
        <ele>1091.71</ele>
        <time>2015-09-24T11:58:13Z</time>
      </trkpt>
      <trkpt lat="48.03045" lon="6.93714">
        <ele>1087.87</ele>
        <time>2015-09-24T11:58:43Z</time>
      </trkpt>
      <trkpt lat="48.03052" lon="6.93635">
        <ele>1081.14</ele>
        <time>2015-09-24T11:59:28Z</time>
      </trkpt>
      <trkpt lat="48.03062" lon="6.9357">
        <ele>1076.33</ele>
        <time>2015-09-24T12:00:06Z</time>
      </trkpt>
      <trkpt lat="48.03067" lon="6.93515">
        <ele>1071.53</ele>
        <time>2015-09-24T12:00:37Z</time>
      </trkpt>
      <trkpt lat="48.03073" lon="6.93469">
        <ele>1067.68</ele>
        <time>2015-09-24T12:01:05Z</time>
      </trkpt>
      <trkpt lat="48.03082" lon="6.93434">
        <ele>1065.28</ele>
        <time>2015-09-24T12:01:41Z</time>
      </trkpt>
      <trkpt lat="48.03092" lon="6.93403">
        <ele>1061.91</ele>
        <time>2015-09-24T12:02:03Z</time>
      </trkpt>
      <trkpt lat="48.03101" lon="6.93373">
        <ele>1059.99</ele>
        <time>2015-09-24T12:02:21Z</time>
      </trkpt>
      <trkpt lat="48.03113" lon="6.93329">
        <ele>1055.67</ele>
        <time>2015-09-24T12:02:46Z</time>
      </trkpt>
      <trkpt lat="48.03126" lon="6.93284">
        <ele>1052.3</ele>
        <time>2015-09-24T12:03:09Z</time>
      </trkpt>
      <trkpt lat="48.03139" lon="6.93241">
        <ele>1048.45</ele>
        <time>2015-09-24T12:03:35Z</time>
      </trkpt>
      <trkpt lat="48.03148" lon="6.93216">
        <ele>1046.53</ele>
        <time>2015-09-24T12:03:52Z</time>
      </trkpt>
      <trkpt lat="48.0316" lon="6.93167">
        <ele>1042.21</ele>
        <time>2015-09-24T12:04:22Z</time>
      </trkpt>
      <trkpt lat="48.03169" lon="6.93136">
        <ele>1038.84</ele>
        <time>2015-09-24T12:04:39Z</time>
      </trkpt>
      <trkpt lat="48.03176" lon="6.93104">
        <ele>1036.44</ele>
        <time>2015-09-24T12:04:56Z</time>
      </trkpt>
      <trkpt lat="48.03204" lon="6.9306">
        <ele>1031.15</ele>
        <time>2015-09-24T12:05:34Z</time>
      </trkpt>
      <trkpt lat="48.03233" lon="6.93067">
        <ele>1027.31</ele>
        <time>2015-09-24T12:06:00Z</time>
      </trkpt>
      <trkpt lat="48.0325" lon="6.93079">
        <ele>1024.9</ele>
        <time>2015-09-24T12:06:16Z</time>
      </trkpt>
      <trkpt lat="48.0327" lon="6.93094">
        <ele>1022.5</ele>
        <time>2015-09-24T12:06:32Z</time>
      </trkpt>
      <trkpt lat="48.03289" lon="6.93111">
        <ele>1020.1</ele>
        <time>2015-09-24T12:06:50Z</time>
      </trkpt>
      <trkpt lat="48.03303" lon="6.93131">
        <ele>1017.21</ele>
        <time>2015-09-24T12:07:09Z</time>
      </trkpt>
      <trkpt lat="48.03342" lon="6.93175">
        <ele>1009.52</ele>
        <time>2015-09-24T12:07:55Z</time>
      </trkpt>
      <trkpt lat="48.03368" lon="6.93191">
        <ele>1006.64</ele>
        <time>2015-09-24T12:08:12Z</time>
      </trkpt>
      <trkpt lat="48.0339" lon="6.93203">
        <ele>1004.23</ele>
        <time>2015-09-24T12:08:27Z</time>
      </trkpt>
      <trkpt lat="48.0341" lon="6.93209">
        <ele>1002.31</ele>
        <time>2015-09-24T12:08:41Z</time>
      </trkpt>
      <trkpt lat="48.0343" lon="6.93216">
        <ele>999.91</ele>
        <time>2015-09-24T12:08:56Z</time>
      </trkpt>
      <trkpt lat="48.0345" lon="6.93222">
        <ele>997.51</ele>
        <time>2015-09-24T12:09:13Z</time>
      </trkpt>
      <trkpt lat="48.03486" lon="6.93234">
        <ele>992.22</ele>
        <time>2015-09-24T12:09:45Z</time>
      </trkpt>
      <trkpt lat="48.03527" lon="6.93249">
        <ele>987.41</ele>
        <time>2015-09-24T12:10:20Z</time>
      </trkpt>
      <trkpt lat="48.03566" lon="6.93292">
        <ele>982.12</ele>
        <time>2015-09-24T12:11:57Z</time>
      </trkpt>
      <trkpt lat="48.03599" lon="6.93299">
        <ele>976.84</ele>
        <time>2015-09-24T12:14:01Z</time>
      </trkpt>
      <trkpt lat="48.0364" lon="6.93326">
        <ele>971.55</ele>
        <time>2015-09-24T12:14:36Z</time>
      </trkpt>
      <trkpt lat="48.03663" lon="6.93335">
        <ele>968.67</ele>
        <time>2015-09-24T12:14:55Z</time>
      </trkpt>
      <trkpt lat="48.0369" lon="6.93349">
        <ele>965.78</ele>
        <time>2015-09-24T12:15:16Z</time>
      </trkpt>
      <trkpt lat="48.03709" lon="6.93359">
        <ele>962.42</ele>
        <time>2015-09-24T12:15:35Z</time>
      </trkpt>
      <trkpt lat="48.03736" lon="6.9337">
        <ele>959.53</ele>
        <time>2015-09-24T12:15:56Z</time>
      </trkpt>
      <trkpt lat="48.03762" lon="6.93382">
        <ele>956.65</ele>
        <time>2015-09-24T12:16:20Z</time>
      </trkpt>
      <trkpt lat="48.03787" lon="6.93396">
        <ele>953.28</ele>
        <time>2015-09-24T12:16:41Z</time>
      </trkpt>
      <trkpt lat="48.03814" lon="6.93412">
        <ele>950.4</ele>
        <time>2015-09-24T12:17:04Z</time>
      </trkpt>
      <trkpt lat="48.03834" lon="6.93434">
        <ele>947.04</ele>
        <time>2015-09-24T12:17:24Z</time>
      </trkpt>
      <trkpt lat="48.03861" lon="6.93428">
        <ele>944.15</ele>
        <time>2015-09-24T12:17:44Z</time>
      </trkpt>
      <trkpt lat="48.03881" lon="6.93422">
        <ele>941.27</ele>
        <time>2015-09-24T12:18:00Z</time>
      </trkpt>
      <trkpt lat="48.03922" lon="6.93408">
        <ele>936.46</ele>
        <time>2015-09-24T12:18:31Z</time>
      </trkpt>
      <trkpt lat="48.03954" lon="6.93416">
        <ele>934.06</ele>
        <time>2015-09-24T12:18:51Z</time>
      </trkpt>
      <trkpt lat="48.03982" lon="6.93411">
        <ele>930.69</ele>
        <time>2015-09-24T12:19:10Z</time>
      </trkpt>
      <trkpt lat="48.04014" lon="6.93414">
        <ele>927.81</ele>
        <time>2015-09-24T12:19:31Z</time>
      </trkpt>
      <trkpt lat="48.0404" lon="6.93429">
        <ele>924.93</ele>
        <time>2015-09-24T12:19:51Z</time>
      </trkpt>
      <trkpt lat="48.04064" lon="6.93446">
        <ele>922.04</ele>
        <time>2015-09-24T12:20:13Z</time>
      </trkpt>
      <trkpt lat="48.04088" lon="6.93462">
        <ele>919.16</ele>
        <time>2015-09-24T12:20:33Z</time>
      </trkpt>
      <trkpt lat="48.04116" lon="6.93455">
        <ele>915.79</ele>
        <time>2015-09-24T12:20:54Z</time>
      </trkpt>
      <trkpt lat="48.04142" lon="6.93447">
        <ele>912.43</ele>
        <time>2015-09-24T12:21:12Z</time>
      </trkpt>
      <trkpt lat="48.04166" lon="6.93443">
        <ele>909.54</ele>
        <time>2015-09-24T12:21:29Z</time>
      </trkpt>
      <trkpt lat="48.04217" lon="6.93439">
        <ele>903.78</ele>
        <time>2015-09-24T12:22:04Z</time>
      </trkpt>
      <trkpt lat="48.04236" lon="6.93435">
        <ele>900.41</ele>
        <time>2015-09-24T12:22:21Z</time>
      </trkpt>
      <trkpt lat="48.04258" lon="6.93437">
        <ele>897.53</ele>
        <time>2015-09-24T12:22:37Z</time>
      </trkpt>
      <trkpt lat="48.04282" lon="6.93434">
        <ele>894.16</ele>
        <time>2015-09-24T12:22:53Z</time>
      </trkpt>
      <trkpt lat="48.04319" lon="6.93433">
        <ele>888.4</ele>
        <time>2015-09-24T12:23:25Z</time>
      </trkpt>
      <trkpt lat="48.04345" lon="6.93432">
        <ele>885.99</ele>
        <time>2015-09-24T12:26:08Z</time>
      </trkpt>
      <trkpt lat="48.0437" lon="6.9341">
        <ele>881.67</ele>
        <time>2015-09-24T12:26:44Z</time>
      </trkpt>
      <trkpt lat="48.04386" lon="6.93382">
        <ele>877.34</ele>
        <time>2015-09-24T12:27:17Z</time>
      </trkpt>
      <trkpt lat="48.04359" lon="6.93353">
        <ele>876.86</ele>
        <time>2015-09-24T12:28:01Z</time>
      </trkpt>
      <trkpt lat="48.04343" lon="6.93336">
        <ele>876.38</ele>
        <time>2015-09-24T12:28:17Z</time>
      </trkpt>
      <trkpt lat="48.04326" lon="6.93316">
        <ele>875.9</ele>
        <time>2015-09-24T12:28:35Z</time>
      </trkpt>
      <trkpt lat="48.04363" lon="6.9327">
        <ele>873.5</ele>
        <time>2015-09-24T12:29:59Z</time>
      </trkpt>
      <trkpt lat="48.04385" lon="6.93284">
        <ele>873.5</ele>
        <time>2015-09-24T12:30:18Z</time>
      </trkpt>
      <trkpt lat="48.04427" lon="6.93303">
        <ele>873.98</ele>
        <time>2015-09-24T12:30:57Z</time>
      </trkpt>
      <trkpt lat="48.04457" lon="6.93315">
        <ele>874.94</ele>
        <time>2015-09-24T12:31:21Z</time>
      </trkpt>
      <trkpt lat="48.04488" lon="6.93279">
        <ele>876.86</ele>
        <time>2015-09-24T12:32:40Z</time>
      </trkpt>
      <trkpt lat="48.04495" lon="6.93252">
        <ele>877.34</ele>
        <time>2015-09-24T12:33:38Z</time>
      </trkpt>
      <trkpt lat="48.04513" lon="6.93242">
        <ele>879.26</ele>
        <time>2015-09-24T12:36:09Z</time>
      </trkpt>
      <trkpt lat="48.04538" lon="6.93228">
        <ele>881.67</ele>
        <time>2015-09-24T12:38:55Z</time>
      </trkpt>
      <trkpt lat="48.04558" lon="6.93218">
        <ele>881.67</ele>
        <time>2015-09-24T12:39:27Z</time>
      </trkpt>
      <trkpt lat="48.04576" lon="6.93198">
        <ele>885.03</ele>
        <time>2015-09-24T12:39:45Z</time>
      </trkpt>
      <trkpt lat="48.04592" lon="6.93176">
        <ele>889.36</ele>
        <time>2015-09-24T12:40:01Z</time>
      </trkpt>
      <trkpt lat="48.04614" lon="6.93119">
        <ele>894.16</ele>
        <time>2015-09-24T12:40:41Z</time>
      </trkpt>
      <trkpt lat="48.04621" lon="6.93087">
        <ele>896.09</ele>
        <time>2015-09-24T12:40:57Z</time>
      </trkpt>
      <trkpt lat="48.04627" lon="6.93059">
        <ele>897.05</ele>
        <time>2015-09-24T12:41:13Z</time>
      </trkpt>
      <trkpt lat="48.0464" lon="6.92995">
        <ele>907.14</ele>
        <time>2015-09-24T12:43:04Z</time>
      </trkpt>
      <trkpt lat="48.04627" lon="6.92972">
        <ele>907.14</ele>
        <time>2015-09-24T12:43:44Z</time>
      </trkpt>
      <trkpt lat="48.04619" lon="6.9294">
        <ele>918.68</ele>
        <time>2015-09-24T12:44:17Z</time>
      </trkpt>
      <trkpt lat="48.04611" lon="6.92913">
        <ele>920.6</ele>
        <time>2015-09-24T12:44:34Z</time>
      </trkpt>
      <trkpt lat="48.04597" lon="6.92891">
        <ele>923.96</ele>
        <time>2015-09-24T12:44:52Z</time>
      </trkpt>
      <trkpt lat="48.04584" lon="6.92859">
        <ele>926.85</ele>
        <time>2015-09-24T12:45:11Z</time>
      </trkpt>
      <trkpt lat="48.04614" lon="6.92832">
        <ele>934.06</ele>
        <time>2015-09-24T12:46:02Z</time>
      </trkpt>
      <trkpt lat="48.04652" lon="6.92835">
        <ele>939.83</ele>
        <time>2015-09-24T12:46:47Z</time>
      </trkpt>
      <trkpt lat="48.04673" lon="6.92839">
        <ele>943.67</ele>
        <time>2015-09-24T12:47:18Z</time>
      </trkpt>
      <trkpt lat="48.04694" lon="6.92844">
        <ele>948.48</ele>
        <time>2015-09-24T12:47:50Z</time>
      </trkpt>
      <trkpt lat="48.04698" lon="6.92813">
        <ele>953.28</ele>
        <time>2015-09-24T12:48:23Z</time>
      </trkpt>
      <trkpt lat="48.04711" lon="6.92785">
        <ele>957.13</ele>
        <time>2015-09-24T12:48:54Z</time>
      </trkpt>
      <trkpt lat="48.04727" lon="6.92817">
        <ele>961.94</ele>
        <time>2015-09-24T12:49:30Z</time>
      </trkpt>
      <trkpt lat="48.04747" lon="6.92825">
        <ele>966.74</ele>
        <time>2015-09-24T12:50:02Z</time>
      </trkpt>
      <trkpt lat="48.04766" lon="6.9284">
        <ele>971.07</ele>
        <time>2015-09-24T12:50:35Z</time>
      </trkpt>
      <trkpt lat="48.04769" lon="6.92811">
        <ele>976.84</ele>
        <time>2015-09-24T12:52:09Z</time>
      </trkpt>
      <trkpt lat="48.04777" lon="6.92762">
        <ele>977.8</ele>
        <time>2015-09-24T12:54:11Z</time>
      </trkpt>
      <trkpt lat="48.04806" lon="6.92737">
        <ele>976.36</ele>
        <time>2015-09-24T12:54:47Z</time>
      </trkpt>
      <trkpt lat="48.04842" lon="6.9272">
        <ele>986.93</ele>
        <time>2015-09-24T12:56:09Z</time>
      </trkpt>
      <trkpt lat="48.04828" lon="6.92696">
        <ele>990.78</ele>
        <time>2015-09-24T12:56:39Z</time>
      </trkpt>
      <trkpt lat="48.04837" lon="6.92666">
        <ele>995.58</ele>
        <time>2015-09-24T12:57:26Z</time>
      </trkpt>
      <trkpt lat="48.04849" lon="6.9264">
        <ele>1002.79</ele>
        <time>2015-09-24T12:58:29Z</time>
      </trkpt>
      <trkpt lat="48.04846" lon="6.92607">
        <ele>1003.75</ele>
        <time>2015-09-24T12:58:48Z</time>
      </trkpt>
      <trkpt lat="48.04839" lon="6.92567">
        <ele>1009.52</ele>
        <time>2015-09-24T12:59:20Z</time>
      </trkpt>
      <trkpt lat="48.04835" lon="6.9253">
        <ele>1012.41</ele>
        <time>2015-09-24T12:59:53Z</time>
      </trkpt>
      <trkpt lat="48.04828" lon="6.92495">
        <ele>1015.29</ele>
        <time>2015-09-24T13:00:22Z</time>
      </trkpt>
      <trkpt lat="48.04817" lon="6.92441">
        <ele>1020.58</ele>
        <time>2015-09-24T13:01:04Z</time>
      </trkpt>
      <trkpt lat="48.04808" lon="6.92382">
        <ele>1029.23</ele>
        <time>2015-09-24T13:02:04Z</time>
      </trkpt>
      <trkpt lat="48.04795" lon="6.92334">
        <ele>1035</ele>
        <time>2015-09-24T13:02:46Z</time>
      </trkpt>
      <trkpt lat="48.04786" lon="6.92275">
        <ele>1038.84</ele>
        <time>2015-09-24T13:03:32Z</time>
      </trkpt>
      <trkpt lat="48.04786" lon="6.92236">
        <ele>1043.17</ele>
        <time>2015-09-24T13:04:01Z</time>
      </trkpt>
      <trkpt lat="48.04775" lon="6.92196">
        <ele>1045.09</ele>
        <time>2015-09-24T13:04:33Z</time>
      </trkpt>
      <trkpt lat="48.04779" lon="6.92145">
        <ele>1049.9</ele>
        <time>2015-09-24T13:05:56Z</time>
      </trkpt>
      <trkpt lat="48.04813" lon="6.92118">
        <ele>1055.67</ele>
        <time>2015-09-24T13:07:53Z</time>
      </trkpt>
      <trkpt lat="48.04829" lon="6.92101">
        <ele>1055.67</ele>
        <time>2015-09-24T13:08:10Z</time>
      </trkpt>
      <trkpt lat="48.04833" lon="6.92068">
        <ele>1056.63</ele>
        <time>2015-09-24T13:08:33Z</time>
      </trkpt>
      <trkpt lat="48.04815" lon="6.92025">
        <ele>1059.99</ele>
        <time>2015-09-24T13:09:17Z</time>
      </trkpt>
      <trkpt lat="48.048" lon="6.91985">
        <ele>1064.32</ele>
        <time>2015-09-24T13:09:50Z</time>
      </trkpt>
      <trkpt lat="48.04786" lon="6.91928">
        <ele>1068.16</ele>
        <time>2015-09-24T13:10:33Z</time>
      </trkpt>
      <trkpt lat="48.04778" lon="6.91847">
        <ele>1077.78</ele>
        <time>2015-09-24T13:11:38Z</time>
      </trkpt>
      <trkpt lat="48.0476" lon="6.91854">
        <ele>1080.66</ele>
        <time>2015-09-24T13:12:04Z</time>
      </trkpt>
      <trkpt lat="48.04734" lon="6.91878">
        <ele>1086.43</ele>
        <time>2015-09-24T13:12:39Z</time>
      </trkpt>
      <trkpt lat="48.0472" lon="6.91899">
        <ele>1089.31</ele>
        <time>2015-09-24T13:13:03Z</time>
      </trkpt>
      <trkpt lat="48.04693" lon="6.91923">
        <ele>1093.16</ele>
        <time>2015-09-24T13:13:31Z</time>
      </trkpt>
      <trkpt lat="48.04661" lon="6.9193">
        <ele>1097.48</ele>
        <time>2015-09-24T13:13:58Z</time>
      </trkpt>
      <trkpt lat="48.04613" lon="6.91927">
        <ele>1104.21</ele>
        <time>2015-09-24T13:14:38Z</time>
      </trkpt>
      <trkpt lat="48.04587" lon="6.91925">
        <ele>1106.61</ele>
        <time>2015-09-24T13:15:00Z</time>
      </trkpt>
      <trkpt lat="48.04565" lon="6.91931">
        <ele>1105.17</ele>
        <time>2015-09-24T13:15:17Z</time>
      </trkpt>
      <trkpt lat="48.04544" lon="6.91931">
        <ele>1106.61</ele>
        <time>2015-09-24T13:15:33Z</time>
      </trkpt>
      <trkpt lat="48.04491" lon="6.91917">
        <ele>1113.82</ele>
        <time>2015-09-24T13:16:33Z</time>
      </trkpt>
      <trkpt lat="48.04495" lon="6.9189">
        <ele>1117.67</ele>
        <time>2015-09-24T13:17:54Z</time>
      </trkpt>
      <trkpt lat="48.04533" lon="6.9186">
        <ele>1124.88</ele>
        <time>2015-09-24T13:18:34Z</time>
      </trkpt>
      <trkpt lat="48.04565" lon="6.91833">
        <ele>1125.84</ele>
        <time>2015-09-24T13:19:06Z</time>
      </trkpt>
      <trkpt lat="48.04581" lon="6.91802">
        <ele>1128.24</ele>
        <time>2015-09-24T13:19:31Z</time>
      </trkpt>
      <trkpt lat="48.04584" lon="6.91771">
        <ele>1131.13</ele>
        <time>2015-09-24T13:19:50Z</time>
      </trkpt>
      <trkpt lat="48.04598" lon="6.91752">
        <ele>1131.13</ele>
        <time>2015-09-24T13:20:07Z</time>
      </trkpt>
      <trkpt lat="48.04633" lon="6.91706">
        <ele>1131.61</ele>
        <time>2015-09-24T13:20:45Z</time>
      </trkpt>
      <trkpt lat="48.04664" lon="6.9168">
        <ele>1137.86</ele>
        <time>2015-09-24T13:21:24Z</time>
      </trkpt>
      <trkpt lat="48.04687" lon="6.91666">
        <ele>1143.14</ele>
        <time>2015-09-24T13:31:54Z</time>
      </trkpt>
      <trkpt lat="48.047" lon="6.91697">
        <ele>1135.45</ele>
        <time>2015-09-24T13:37:19Z</time>
      </trkpt>
      <trkpt lat="48.04721" lon="6.91705">
        <ele>1129.69</ele>
        <time>2015-09-24T13:37:44Z</time>
      </trkpt>
      <trkpt lat="48.04754" lon="6.9172">
        <ele>1116.71</ele>
        <time>2015-09-24T13:38:23Z</time>
      </trkpt>
      <trkpt lat="48.0482" lon="6.91737">
        <ele>1088.83</ele>
        <time>2015-09-24T13:39:57Z</time>
      </trkpt>
      <trkpt lat="48.0484" lon="6.91744">
        <ele>1080.18</ele>
        <time>2015-09-24T13:40:30Z</time>
      </trkpt>
      <trkpt lat="48.04861" lon="6.91735">
        <ele>1071.05</ele>
        <time>2015-09-24T13:41:02Z</time>
      </trkpt>
      <trkpt lat="48.04881" lon="6.91763">
        <ele>1060.95</ele>
        <time>2015-09-24T13:44:07Z</time>
      </trkpt>
      <trkpt lat="48.04877" lon="6.91791">
        <ele>1059.51</ele>
        <time>2015-09-24T13:44:32Z</time>
      </trkpt>
      <trkpt lat="48.04871" lon="6.91833">
        <ele>1057.59</ele>
        <time>2015-09-24T13:45:04Z</time>
      </trkpt>
      <trkpt lat="48.04874" lon="6.91929">
        <ele>1056.15</ele>
        <time>2015-09-24T13:46:05Z</time>
      </trkpt>
      <trkpt lat="48.04873" lon="6.92015">
        <ele>1055.18</ele>
        <time>2015-09-24T13:47:04Z</time>
      </trkpt>
      <trkpt lat="48.04862" lon="6.92039">
        <ele>1056.63</ele>
        <time>2015-09-24T13:47:20Z</time>
      </trkpt>
      <trkpt lat="48.04833" lon="6.92091">
        <ele>1056.63</ele>
        <time>2015-09-24T13:48:20Z</time>
      </trkpt>
      <trkpt lat="48.04809" lon="6.92119">
        <ele>1055.67</ele>
        <time>2015-09-24T13:48:50Z</time>
      </trkpt>
      <trkpt lat="48.04786" lon="6.92152">
        <ele>1051.34</ele>
        <time>2015-09-24T13:49:21Z</time>
      </trkpt>
      <trkpt lat="48.04792" lon="6.92202">
        <ele>1047.49</ele>
        <time>2015-09-24T13:49:58Z</time>
      </trkpt>
      <trkpt lat="48.04816" lon="6.92222">
        <ele>1049.42</ele>
        <time>2015-09-24T13:50:26Z</time>
      </trkpt>
      <trkpt lat="48.04856" lon="6.92291">
        <ele>1051.34</ele>
        <time>2015-09-24T13:51:22Z</time>
      </trkpt>
      <trkpt lat="48.04883" lon="6.92345">
        <ele>1053.26</ele>
        <time>2015-09-24T13:52:09Z</time>
      </trkpt>
      <trkpt lat="48.04901" lon="6.92366">
        <ele>1053.26</ele>
        <time>2015-09-24T13:52:24Z</time>
      </trkpt>
      <trkpt lat="48.04927" lon="6.92402">
        <ele>1054.22</ele>
        <time>2015-09-24T13:52:56Z</time>
      </trkpt>
      <trkpt lat="48.04937" lon="6.92427">
        <ele>1054.7</ele>
        <time>2015-09-24T13:53:11Z</time>
      </trkpt>
      <trkpt lat="48.04956" lon="6.92474">
        <ele>1054.22</ele>
        <time>2015-09-24T13:53:42Z</time>
      </trkpt>
      <trkpt lat="48.04972" lon="6.925">
        <ele>1053.74</ele>
        <time>2015-09-24T13:54:04Z</time>
      </trkpt>
      <trkpt lat="48.0501" lon="6.9252">
        <ele>1051.34</ele>
        <time>2015-09-24T13:54:44Z</time>
      </trkpt>
      <trkpt lat="48.05031" lon="6.92527">
        <ele>1048.94</ele>
        <time>2015-09-24T13:55:04Z</time>
      </trkpt>
      <trkpt lat="48.05063" lon="6.92548">
        <ele>1047.49</ele>
        <time>2015-09-24T13:55:34Z</time>
      </trkpt>
      <trkpt lat="48.05094" lon="6.92568">
        <ele>1046.53</ele>
        <time>2015-09-24T13:56:03Z</time>
      </trkpt>
      <trkpt lat="48.05128" lon="6.92588">
        <ele>1047.49</ele>
        <time>2015-09-24T13:56:30Z</time>
      </trkpt>
      <trkpt lat="48.05155" lon="6.92604">
        <ele>1047.01</ele>
        <time>2015-09-24T13:56:53Z</time>
      </trkpt>
      <trkpt lat="48.05176" lon="6.92627">
        <ele>1046.53</ele>
        <time>2015-09-24T13:57:17Z</time>
      </trkpt>
      <trkpt lat="48.05194" lon="6.92638">
        <ele>1047.01</ele>
        <time>2015-09-24T13:57:31Z</time>
      </trkpt>
      <trkpt lat="48.0522" lon="6.92674">
        <ele>1048.45</ele>
        <time>2015-09-24T13:58:01Z</time>
      </trkpt>
      <trkpt lat="48.05243" lon="6.92711">
        <ele>1049.9</ele>
        <time>2015-09-24T13:58:35Z</time>
      </trkpt>
      <trkpt lat="48.05268" lon="6.92722">
        <ele>1048.94</ele>
        <time>2015-09-24T13:59:00Z</time>
      </trkpt>
      <trkpt lat="48.05303" lon="6.92729">
        <ele>1048.45</ele>
        <time>2015-09-24T13:59:30Z</time>
      </trkpt>
      <trkpt lat="48.05334" lon="6.92755">
        <ele>1047.97</ele>
        <time>2015-09-24T13:59:55Z</time>
      </trkpt>
      <trkpt lat="48.05345" lon="6.92819">
        <ele>1053.74</ele>
        <time>2015-09-24T14:00:40Z</time>
      </trkpt>
      <trkpt lat="48.05333" lon="6.92864">
        <ele>1053.74</ele>
        <time>2015-09-24T14:01:19Z</time>
      </trkpt>
      <trkpt lat="48.05336" lon="6.92904">
        <ele>1054.22</ele>
        <time>2015-09-24T14:01:53Z</time>
      </trkpt>
      <trkpt lat="48.05347" lon="6.92927">
        <ele>1055.18</ele>
        <time>2015-09-24T14:02:11Z</time>
      </trkpt>
      <trkpt lat="48.0535" lon="6.92957">
        <ele>1055.67</ele>
        <time>2015-09-24T14:03:17Z</time>
      </trkpt>
      <trkpt lat="48.05355" lon="6.93008">
        <ele>1057.59</ele>
        <time>2015-09-24T14:03:48Z</time>
      </trkpt>
      <trkpt lat="48.05369" lon="6.93049">
        <ele>1056.15</ele>
        <time>2015-09-24T14:04:19Z</time>
      </trkpt>
      <trkpt lat="48.05372" lon="6.93092">
        <ele>1053.74</ele>
        <time>2015-09-24T14:04:48Z</time>
      </trkpt>
      <trkpt lat="48.05374" lon="6.93152">
        <ele>1047.97</ele>
        <time>2015-09-24T14:05:34Z</time>
      </trkpt>
      <trkpt lat="48.05373" lon="6.93204">
        <ele>1048.45</ele>
        <time>2015-09-24T14:06:04Z</time>
      </trkpt>
      <trkpt lat="48.05375" lon="6.93256">
        <ele>1046.05</ele>
        <time>2015-09-24T14:06:41Z</time>
      </trkpt>
      <trkpt lat="48.05387" lon="6.933">
        <ele>1042.69</ele>
        <time>2015-09-24T14:07:11Z</time>
      </trkpt>
      <trkpt lat="48.05379" lon="6.93339">
        <ele>1038.84</ele>
        <time>2015-09-24T14:07:39Z</time>
      </trkpt>
      <trkpt lat="48.05383" lon="6.93388">
        <ele>1034.52</ele>
        <time>2015-09-24T14:08:08Z</time>
      </trkpt>
      <trkpt lat="48.05398" lon="6.93422">
        <ele>1032.11</ele>
        <time>2015-09-24T14:08:35Z</time>
      </trkpt>
      <trkpt lat="48.05419" lon="6.93479">
        <ele>1026.83</ele>
        <time>2015-09-24T14:09:20Z</time>
      </trkpt>
      <trkpt lat="48.05426" lon="6.93506">
        <ele>1024.9</ele>
        <time>2015-09-24T14:09:36Z</time>
      </trkpt>
      <trkpt lat="48.05436" lon="6.93537">
        <ele>1022.02</ele>
        <time>2015-09-24T14:10:07Z</time>
      </trkpt>
      <trkpt lat="48.05442" lon="6.93567">
        <ele>1020.58</ele>
        <time>2015-09-24T14:10:23Z</time>
      </trkpt>
      <trkpt lat="48.05486" lon="6.93665">
        <ele>1015.29</ele>
        <time>2015-09-24T14:11:31Z</time>
      </trkpt>
      <trkpt lat="48.05494" lon="6.93706">
        <ele>1011.93</ele>
        <time>2015-09-24T14:11:56Z</time>
      </trkpt>
      <trkpt lat="48.05507" lon="6.93763">
        <ele>1008.08</ele>
        <time>2015-09-24T14:12:30Z</time>
      </trkpt>
      <trkpt lat="48.05514" lon="6.93789">
        <ele>1006.16</ele>
        <time>2015-09-24T14:12:47Z</time>
      </trkpt>
      <trkpt lat="48.05527" lon="6.93835">
        <ele>1003.27</ele>
        <time>2015-09-24T14:13:15Z</time>
      </trkpt>
      <trkpt lat="48.05543" lon="6.93939">
        <ele>990.78</ele>
        <time>2015-09-24T14:14:30Z</time>
      </trkpt>
      <trkpt lat="48.05544" lon="6.93969">
        <ele>987.89</ele>
        <time>2015-09-24T14:14:48Z</time>
      </trkpt>
      <trkpt lat="48.05553" lon="6.9401">
        <ele>982.12</ele>
        <time>2015-09-24T14:15:19Z</time>
      </trkpt>
      <trkpt lat="48.05567" lon="6.94049">
        <ele>976.36</ele>
        <time>2015-09-24T14:15:54Z</time>
      </trkpt>
      <trkpt lat="48.05584" lon="6.94091">
        <ele>968.18</ele>
        <time>2015-09-24T14:16:39Z</time>
      </trkpt>
      <trkpt lat="48.05593" lon="6.94123">
        <ele>962.42</ele>
        <time>2015-09-24T14:17:11Z</time>
      </trkpt>
      <trkpt lat="48.05619" lon="6.94176">
        <ele>955.21</ele>
        <time>2015-09-24T14:17:56Z</time>
      </trkpt>
      <trkpt lat="48.05638" lon="6.94202">
        <ele>950.88</ele>
        <time>2015-09-24T14:18:26Z</time>
      </trkpt>
      <trkpt lat="48.05656" lon="6.94226">
        <ele>947.04</ele>
        <time>2015-09-24T14:18:56Z</time>
      </trkpt>
      <trkpt lat="48.05673" lon="6.9424">
        <ele>941.75</ele>
        <time>2015-09-24T14:19:24Z</time>
      </trkpt>
      <trkpt lat="48.05691" lon="6.94259">
        <ele>935.98</ele>
        <time>2015-09-24T14:19:55Z</time>
      </trkpt>
      <trkpt lat="48.05689" lon="6.9429">
        <ele>932.14</ele>
        <time>2015-09-24T14:22:15Z</time>
      </trkpt>
      <trkpt lat="48.05695" lon="6.94317">
        <ele>933.58</ele>
        <time>2015-09-24T14:23:07Z</time>
      </trkpt>
      <trkpt lat="48.057" lon="6.94369">
        <ele>938.86</ele>
        <time>2015-09-24T14:23:48Z</time>
      </trkpt>
      <trkpt lat="48.05706" lon="6.94411">
        <ele>941.27</ele>
        <time>2015-09-24T14:24:18Z</time>
      </trkpt>
      <trkpt lat="48.05714" lon="6.94478">
        <ele>949.92</ele>
        <time>2015-09-24T14:25:13Z</time>
      </trkpt>
      <trkpt lat="48.05705" lon="6.94535">
        <ele>953.28</ele>
        <time>2015-09-24T14:25:47Z</time>
      </trkpt>
      <trkpt lat="48.05682" lon="6.94589">
        <ele>964.82</ele>
        <time>2015-09-24T14:26:49Z</time>
      </trkpt>
      <trkpt lat="48.05672" lon="6.94643">
        <ele>974.91</ele>
        <time>2015-09-24T14:27:57Z</time>
      </trkpt>
      <trkpt lat="48.05663" lon="6.94678">
        <ele>981.16</ele>
        <time>2015-09-24T14:28:23Z</time>
      </trkpt>
      <trkpt lat="48.05655" lon="6.94736">
        <ele>990.78</ele>
        <time>2015-09-24T14:28:59Z</time>
      </trkpt>
      <trkpt lat="48.05669" lon="6.94764">
        <ele>995.1</ele>
        <time>2015-09-24T14:29:26Z</time>
      </trkpt>
      <trkpt lat="48.05701" lon="6.94775">
        <ele>997.02</ele>
        <time>2015-09-24T14:29:55Z</time>
      </trkpt>
      <trkpt lat="48.0572" lon="6.94779">
        <ele>997.02</ele>
        <time>2015-09-24T14:30:14Z</time>
      </trkpt>
      <trkpt lat="48.05738" lon="6.94791">
        <ele>997.02</ele>
        <time>2015-09-24T14:30:26Z</time>
      </trkpt>
      <trkpt lat="48.05788" lon="6.94798">
        <ele>997.02</ele>
        <time>2015-09-24T14:31:13Z</time>
      </trkpt>
      <trkpt lat="48.05824" lon="6.94834">
        <ele>996.54</ele>
        <time>2015-09-24T14:31:55Z</time>
      </trkpt>
      <trkpt lat="48.05839" lon="6.94852">
        <ele>997.02</ele>
        <time>2015-09-24T14:32:09Z</time>
      </trkpt>
      <trkpt lat="48.05858" lon="6.94884">
        <ele>997.51</ele>
        <time>2015-09-24T14:32:38Z</time>
      </trkpt>
      <trkpt lat="48.05882" lon="6.94908">
        <ele>996.54</ele>
        <time>2015-09-24T14:33:08Z</time>
      </trkpt>
      <trkpt lat="48.05916" lon="6.94939">
        <ele>992.7</ele>
        <time>2015-09-24T14:33:37Z</time>
      </trkpt>
      <trkpt lat="48.05948" lon="6.94965">
        <ele>990.3</ele>
        <time>2015-09-24T14:34:05Z</time>
      </trkpt>
      <trkpt lat="48.05991" lon="6.9498">
        <ele>988.85</ele>
        <time>2015-09-24T14:34:38Z</time>
      </trkpt>
      <trkpt lat="48.06021" lon="6.94989">
        <ele>990.3</ele>
        <time>2015-09-24T14:35:07Z</time>
      </trkpt>
      <trkpt lat="48.06065" lon="6.94989">
        <ele>990.78</ele>
        <time>2015-09-24T14:35:44Z</time>
      </trkpt>
      <trkpt lat="48.06096" lon="6.94993">
        <ele>987.89</ele>
        <time>2015-09-24T14:36:13Z</time>
      </trkpt>
      <trkpt lat="48.06115" lon="6.95051">
        <ele>982.6</ele>
        <time>2015-09-24T14:36:53Z</time>
      </trkpt>
      <trkpt lat="48.06136" lon="6.95077">
        <ele>978.76</ele>
        <time>2015-09-24T14:37:19Z</time>
      </trkpt>
      <trkpt lat="48.06164" lon="6.95095">
        <ele>976.84</ele>
        <time>2015-09-24T14:38:20Z</time>
      </trkpt>
      <trkpt lat="48.06134" lon="6.9508">
        <ele>979.24</ele>
        <time>2015-09-24T14:45:05Z</time>
      </trkpt>
      <trkpt lat="48.06108" lon="6.95039">
        <ele>984.53</ele>
        <time>2015-09-24T14:45:50Z</time>
      </trkpt>
      <trkpt lat="48.06094" lon="6.94999">
        <ele>987.89</ele>
        <time>2015-09-24T14:46:19Z</time>
      </trkpt>
      <trkpt lat="48.06044" lon="6.94996">
        <ele>991.26</ele>
        <time>2015-09-24T14:47:06Z</time>
      </trkpt>
      <trkpt lat="48.05996" lon="6.9499">
        <ele>988.37</ele>
        <time>2015-09-24T14:47:53Z</time>
      </trkpt>
      <trkpt lat="48.05966" lon="6.94982">
        <ele>988.85</ele>
        <time>2015-09-24T14:48:22Z</time>
      </trkpt>
      <trkpt lat="48.05928" lon="6.94955">
        <ele>991.26</ele>
        <time>2015-09-24T14:48:55Z</time>
      </trkpt>
      <trkpt lat="48.05886" lon="6.94916">
        <ele>995.58</ele>
        <time>2015-09-24T14:49:38Z</time>
      </trkpt>
      <trkpt lat="48.05858" lon="6.94879">
        <ele>994.62</ele>
        <time>2015-09-24T14:50:09Z</time>
      </trkpt>
      <trkpt lat="48.05836" lon="6.94848">
        <ele>993.66</ele>
        <time>2015-09-24T14:50:37Z</time>
      </trkpt>
      <trkpt lat="48.05819" lon="6.94831">
        <ele>994.14</ele>
        <time>2015-09-24T14:50:51Z</time>
      </trkpt>
      <trkpt lat="48.05788" lon="6.94812">
        <ele>994.62</ele>
        <time>2015-09-24T14:51:21Z</time>
      </trkpt>
      <trkpt lat="48.05761" lon="6.94799">
        <ele>995.1</ele>
        <time>2015-09-24T14:51:49Z</time>
      </trkpt>
      <trkpt lat="48.05739" lon="6.9479">
        <ele>994.14</ele>
        <time>2015-09-24T14:52:07Z</time>
      </trkpt>
      <trkpt lat="48.05707" lon="6.94783">
        <ele>993.66</ele>
        <time>2015-09-24T14:52:35Z</time>
      </trkpt>
      <trkpt lat="48.05671" lon="6.94772">
        <ele>993.66</ele>
        <time>2015-09-24T14:53:03Z</time>
      </trkpt>
      <trkpt lat="48.0564" lon="6.94788">
        <ele>989.33</ele>
        <time>2015-09-24T14:53:41Z</time>
      </trkpt>
      <trkpt lat="48.05611" lon="6.94816">
        <ele>985.97</ele>
        <time>2015-09-24T14:54:11Z</time>
      </trkpt>
      <trkpt lat="48.05575" lon="6.94839">
        <ele>978.76</ele>
        <time>2015-09-24T14:54:59Z</time>
      </trkpt>
      <trkpt lat="48.05534" lon="6.94855">
        <ele>971.55</ele>
        <time>2015-09-24T14:55:49Z</time>
      </trkpt>
      <trkpt lat="48.05494" lon="6.94854">
        <ele>962.42</ele>
        <time>2015-09-24T14:56:34Z</time>
      </trkpt>
      <trkpt lat="48.05469" lon="6.94862">
        <ele>956.17</ele>
        <time>2015-09-24T14:57:04Z</time>
      </trkpt>
      <trkpt lat="48.05431" lon="6.94868">
        <ele>947.04</ele>
        <time>2015-09-24T14:57:51Z</time>
      </trkpt>
      <trkpt lat="48.05396" lon="6.94879">
        <ele>941.27</ele>
        <time>2015-09-24T14:58:25Z</time>
      </trkpt>
      <trkpt lat="48.05377" lon="6.94881">
        <ele>935.98</ele>
        <time>2015-09-24T14:58:56Z</time>
      </trkpt>
      <trkpt lat="48.0536" lon="6.94864">
        <ele>930.21</ele>
        <time>2015-09-24T14:59:25Z</time>
      </trkpt>
      <trkpt lat="48.05346" lon="6.94841">
        <ele>925.41</ele>
        <time>2015-09-24T14:59:56Z</time>
      </trkpt>
      <trkpt lat="48.05325" lon="6.94838">
        <ele>918.68</ele>
        <time>2015-09-24T15:02:14Z</time>
      </trkpt>
      <trkpt lat="48.05315" lon="6.94813">
        <ele>914.35</ele>
        <time>2015-09-24T15:02:45Z</time>
      </trkpt>
      <trkpt lat="48.05289" lon="6.94811">
        <ele>911.95</ele>
        <time>2015-09-24T15:03:20Z</time>
      </trkpt>
      <trkpt lat="48.05272" lon="6.94823">
        <ele>911.95</ele>
        <time>2015-09-24T15:03:50Z</time>
      </trkpt>
    </trkseg>
  </trk>
</gpx>